createdAt,value
2022-10-18T00:00:29.004Z,14.90
2022-10-18T00:05:31.835Z,14.90
2022-10-18T00:10:36.059Z,14.80
2022-10-18T00:15:38.955Z,14.80
2022-10-18T00:20:41.772Z,14.80
2022-10-18T00:25:45.848Z,14.70
2022-10-18T00:35:56.326Z,14.60
2022-10-18T00:41:00.494Z,14.60
2022-10-18T00:46:03.562Z,14.40
2022-10-18T00:51:06.699Z,14.50
2022-10-18T00:56:10.933Z,14.60
2022-10-18T01:01:13.790Z,14.20
2022-10-18T01:06:16.635Z,14.20
2022-10-18T01:11:33.733Z,14.30
2022-10-18T01:16:41.867Z,14.20
2022-10-18T01:21:49.365Z,14.30
2022-10-18T01:27:25.445Z,14.20
2022-10-18T01:32:35.830Z,14.10
2022-10-18T01:37:40.228Z,14.10
2022-10-18T01:42:46.552Z,14.20
2022-10-18T01:47:51.941Z,14.10
2022-10-18T01:52:54.702Z,14.00
2022-10-18T01:58:04.086Z,13.80
2022-10-18T02:03:15.104Z,13.70
2022-10-18T02:08:27.166Z,13.70
2022-10-18T02:13:34.577Z,13.60
2022-10-18T02:18:43.207Z,13.70
2022-10-18T02:23:47.777Z,13.70
2022-10-18T02:28:50.648Z,13.50
2022-10-18T02:33:59.451Z,13.40
2022-10-18T02:39:07.319Z,13.30
2022-10-18T02:44:10.446Z,13.30
2022-10-18T02:49:14.675Z,13.20
2022-10-18T02:54:19.760Z,13.20
2022-10-18T02:59:22.631Z,13.10
2022-10-18T03:04:29.713Z,12.90
2022-10-18T03:09:32.488Z,12.90
2022-10-18T03:14:35.279Z,13.00
2022-10-18T03:19:39.596Z,13.00
2022-10-18T03:24:42.348Z,13.20
2022-10-18T03:29:45.071Z,13.00
2022-10-18T03:34:49.162Z,12.90
2022-10-18T03:39:51.884Z,12.70
2022-10-18T03:44:54.636Z,12.60
2022-10-18T03:49:58.746Z,12.50
2022-10-18T03:55:01.487Z,12.40
2022-10-18T04:00:05.679Z,12.70
2022-10-18T04:05:10.634Z,12.90
2022-10-18T04:10:13.409Z,13.30
2022-10-18T04:15:16.382Z,13.50
2022-10-18T04:20:20.696Z,13.80
2022-10-18T04:25:23.472Z,14.00
2022-10-18T04:30:26.253Z,14.10
2022-10-18T04:35:30.383Z,14.20
2022-10-18T04:40:33.247Z,14.20
2022-10-18T04:45:36.165Z,14.10
2022-10-18T04:50:40.298Z,14.20
2022-10-18T04:55:45.184Z,14.30
2022-10-18T05:00:48.437Z,14.30
2022-10-18T05:06:07.505Z,14.30
2022-10-18T05:16:12.883Z,14.30
2022-10-18T05:21:17.396Z,14.30
2022-10-18T05:26:20.120Z,14.30
2022-10-18T05:31:22.920Z,14.30
2022-10-18T05:36:29.441Z,14.40
2022-10-18T05:41:32.568Z,14.50
2022-10-18T05:46:36.126Z,14.40
2022-10-18T05:51:40.544Z,14.40
2022-10-18T05:56:43.443Z,14.40
2022-10-18T06:01:46.217Z,14.50
2022-10-18T06:06:50.354Z,14.60
2022-10-18T06:11:53.368Z,14.80
2022-10-18T06:16:56.687Z,14.80
2022-10-18T06:22:00.765Z,14.80
2022-10-18T06:27:08.079Z,14.90
2022-10-18T06:32:11.098Z,15.10
2022-10-18T06:37:15.355Z,15.20
2022-10-18T06:42:20.456Z,15.20
2022-10-18T06:47:25.505Z,15.20
2022-10-18T06:52:29.805Z,15.40
2022-10-18T06:57:32.845Z,15.50
2022-10-18T07:02:35.614Z,15.40
2022-10-18T07:07:39.700Z,15.40
2022-10-18T07:12:42.473Z,15.50
2022-10-18T07:17:46.344Z,15.60
2022-10-18T07:22:50.418Z,15.60
2022-10-18T07:27:53.325Z,15.70
2022-10-18T07:32:56.094Z,15.90
2022-10-18T07:38:00.154Z,16.00
2022-10-18T07:43:04.708Z,16.20
2022-10-18T07:48:07.998Z,16.60
2022-10-18T07:53:12.241Z,17.10
2022-10-18T07:58:15.011Z,16.90
2022-10-18T08:03:17.749Z,16.90
2022-10-18T08:08:22.984Z,16.90
2022-10-18T08:13:26.077Z,17.00
2022-10-18T08:18:29.063Z,17.10
2022-10-18T08:23:35.878Z,17.00
2022-10-18T08:28:38.823Z,17.00
2022-10-18T08:33:44.251Z,17.10
2022-10-18T08:38:49.261Z,17.70
2022-10-18T08:43:58.873Z,18.40
2022-10-18T08:49:07.360Z,18.20
2022-10-18T08:54:15.475Z,18.50
2022-10-18T08:59:21.961Z,18.80
2022-10-18T09:04:45.410Z,18.40
2022-10-18T09:09:55.784Z,17.80
2022-10-18T09:15:13.799Z,17.60
2022-10-18T09:20:25.300Z,17.50
2022-10-18T09:25:37.000Z,17.50
2022-10-18T09:30:50.166Z,17.90
2022-10-18T09:35:57.389Z,19.00
2022-10-18T09:41:06.355Z,19.40
2022-10-18T09:46:10.997Z,19.50
2022-10-18T09:51:17.729Z,19.30
2022-10-18T09:56:27.288Z,19.00
2022-10-18T10:01:32.350Z,18.70
2022-10-18T10:06:38.609Z,19.00
2022-10-18T10:11:47.538Z,19.20
2022-10-18T10:16:52.989Z,19.10
2022-10-18T10:22:00.338Z,19.80
2022-10-18T10:27:06.239Z,20.60
2022-10-18T10:32:14.640Z,20.30
2022-10-18T10:37:33.451Z,19.50
2022-10-18T10:42:39.843Z,18.80
2022-10-18T10:47:42.631Z,18.70
2022-10-18T10:52:49.059Z,18.60
2022-10-18T10:57:53.838Z,18.50
2022-10-18T11:03:27.205Z,18.10
2022-10-18T11:08:36.781Z,17.50
2022-10-18T11:13:56.972Z,17.10
2022-10-18T11:19:30.774Z,17.00
2022-10-18T11:24:35.002Z,17.00
2022-10-18T11:29:55.675Z,16.90
2022-10-18T11:35:09.395Z,16.60
2022-10-18T11:40:28.801Z,16.60
2022-10-18T11:45:42.781Z,16.40
2022-10-18T11:50:52.907Z,16.50
2022-10-18T11:56:05.632Z,16.70
2022-10-18T12:01:16.869Z,16.90
2022-10-18T12:06:25.188Z,17.00
2022-10-18T12:11:31.837Z,16.80
2022-10-18T12:16:51.096Z,16.80
2022-10-18T12:21:57.353Z,16.70
2022-10-18T12:27:02.211Z,16.80
2022-10-18T12:32:11.525Z,16.90
2022-10-18T12:37:35.667Z,16.90
2022-10-18T12:42:43.680Z,16.70
2022-10-18T12:47:47.870Z,16.60
2022-10-18T12:53:03.306Z,16.60
2022-10-18T12:58:29.710Z,16.80
2022-10-18T13:04:03.816Z,17.20
2022-10-18T13:09:21.930Z,17.10
2022-10-18T13:15:07.114Z,16.90
2022-10-18T13:20:27.895Z,16.80
2022-10-18T13:25:40.111Z,16.80
2022-10-18T13:30:52.109Z,16.90
2022-10-18T13:35:58.530Z,16.80
2022-10-18T13:41:02.836Z,16.80
2022-10-18T13:46:05.915Z,16.80
2022-10-18T13:51:27.894Z,16.80
2022-10-18T13:56:52.749Z,16.80
2022-10-18T14:02:10.945Z,16.80
2022-10-18T14:07:18.923Z,16.80
2022-10-18T14:12:29.445Z,17.00
2022-10-18T14:22:50.636Z,17.20
2022-10-18T14:28:11.414Z,17.50
2022-10-18T14:33:28.880Z,18.20
2022-10-18T14:38:33.635Z,18.60
2022-10-18T14:43:36.404Z,18.70
2022-10-18T14:48:39.223Z,18.60
2022-10-18T14:53:43.515Z,18.60
2022-10-18T14:58:46.250Z,18.20
2022-10-18T15:03:49.392Z,17.80
2022-10-18T15:08:57.211Z,17.40
2022-10-18T15:14:06.658Z,17.10
2022-10-18T15:19:28.750Z,17.10
2022-10-18T15:24:35.752Z,16.90
2022-10-18T15:29:38.782Z,16.90
2022-10-18T15:34:41.592Z,16.90
2022-10-18T15:39:45.727Z,17.40
2022-10-18T15:44:50.887Z,17.40
2022-10-18T15:49:56.397Z,17.10
2022-10-18T15:55:01.321Z,16.80
2022-10-18T16:00:07.523Z,16.60
2022-10-18T16:05:16.677Z,16.50
2022-10-18T16:10:20.923Z,16.30
2022-10-18T16:15:23.691Z,16.20
2022-10-18T16:20:27.477Z,16.00
2022-10-18T16:25:31.556Z,15.70
2022-10-18T16:30:35.691Z,15.50
2022-10-18T16:35:38.459Z,15.60
2022-10-18T16:40:42.595Z,15.50
2022-10-18T16:45:45.536Z,15.40
2022-10-18T16:50:49.104Z,15.40
2022-10-18T16:55:56.434Z,15.50
2022-10-18T17:00:59.820Z,15.40
2022-10-18T17:06:03.866Z,15.20
2022-10-18T17:11:08.060Z,15.40
2022-10-18T17:16:22.004Z,15.40
2022-10-18T17:21:25.310Z,15.40
2022-10-18T17:26:30.284Z,15.40
2022-10-18T17:31:35.466Z,15.40
2022-10-18T17:36:38.601Z,15.40
2022-10-18T17:41:42.692Z,15.00
2022-10-18T17:46:45.479Z,14.80
2022-10-18T17:51:48.278Z,14.70
2022-10-18T17:56:54.530Z,14.60
2022-10-18T18:01:57.542Z,14.30
2022-10-18T18:07:00.440Z,14.10
2022-10-18T18:12:05.099Z,14.00
2022-10-18T18:17:07.882Z,14.10
2022-10-18T18:22:10.848Z,14.30
2022-10-18T18:27:14.986Z,14.50
2022-10-18T18:32:17.737Z,14.60
2022-10-18T18:37:20.742Z,14.60
2022-10-18T18:42:24.833Z,14.70
2022-10-18T18:47:27.975Z,14.70
2022-10-18T18:52:31.436Z,14.80
2022-10-18T18:57:39.401Z,14.80
2022-10-18T19:02:42.201Z,14.80
2022-10-18T19:07:44.994Z,14.60
2022-10-18T19:12:49.293Z,14.50
2022-10-18T19:17:52.068Z,14.40
2022-10-18T19:22:54.798Z,14.50
2022-10-18T19:27:58.943Z,14.60
2022-10-18T19:33:04.423Z,14.60
2022-10-18T19:38:07.168Z,14.50
2022-10-18T19:43:13.753Z,14.40
2022-10-18T19:48:16.926Z,14.30
2022-10-18T19:53:19.689Z,14.10
2022-10-18T19:58:23.916Z,13.90
2022-10-18T20:03:30.231Z,13.70
2022-10-18T20:08:34.396Z,13.60
2022-10-18T20:13:38.977Z,13.30
2022-10-18T20:18:43.033Z,13.10
2022-10-18T20:23:45.941Z,13.00
2022-10-18T20:28:56.238Z,12.90
2022-10-18T20:34:01.180Z,12.80
2022-10-18T20:39:04.865Z,12.70
2022-10-18T20:44:13.253Z,12.70
2022-10-18T20:49:17.314Z,12.70
2022-10-18T20:54:20.064Z,12.50
2022-10-18T20:59:24.217Z,12.30
2022-10-18T21:04:27.130Z,12.30
2022-10-18T21:09:29.942Z,12.40
2022-10-18T21:14:34.117Z,12.80
2022-10-18T21:19:37.041Z,12.90
2022-10-18T21:24:39.846Z,12.80
2022-10-18T21:29:43.900Z,12.70
2022-10-18T21:34:46.699Z,12.70
2022-10-18T21:39:49.446Z,12.90
2022-10-18T21:44:53.578Z,13.00
2022-10-18T21:55:20.034Z,13.40
2022-10-18T22:00:24.220Z,13.50
2022-10-18T22:05:26.984Z,13.50
2022-10-18T22:10:30.226Z,13.40
2022-10-18T22:15:34.341Z,13.40
2022-10-18T22:20:37.102Z,13.40
2022-10-18T22:25:39.873Z,13.30
2022-10-18T22:30:43.982Z,13.10
2022-10-18T22:35:50.038Z,12.80
2022-10-18T22:40:52.815Z,12.90
2022-10-18T22:45:57.308Z,13.10
2022-10-18T22:51:00.372Z,13.20
2022-10-18T22:56:04.409Z,13.20
2022-10-18T23:01:11.011Z,13.20
2022-10-18T23:06:21.141Z,13.00
2022-10-18T23:11:25.023Z,12.80
2022-10-18T23:16:29.517Z,12.90
2022-10-18T23:21:32.313Z,12.90
2022-10-18T23:26:35.153Z,13.00
2022-10-18T23:31:40.313Z,12.80
2022-10-18T23:41:50.699Z,12.80
2022-10-18T23:46:54.848Z,12.60
2022-10-18T23:51:57.587Z,12.50
2022-10-18T23:57:00.358Z,12.50
